sensor_id;sensor_type;location;lat;lon;timestamp;pressure;altitude;pressure_sealevel;temperature;humidity
30967;BME280;17649;51.836;8.330;2024-03-06T00:02:38;101172.16;;;9.22;100.00
30967;BME280;17649;51.836;8.330;2024-03-06T00:05:39;101175.06;;;9.14;100.00
30967;BME280;17649;51.836;8.330;2024-03-06T00:08:39;101184.00;;;9.06;100.00
30967;BME280;17649;51.836;8.330;2024-03-06T00:11:39;101191.94;;;9.01;100.00
30967;BME280;17649;51.836;8.330;2024-03-06T00:14:40;101186.06;;;8.76;100.00
30967;BME280;17649;51.836;8.330;2024-03-06T00:17:40;101186.88;;;8.76;100.00
30967;BME280;17649;51.836;8.330;2024-03-06T00:20:41;101199.53;;;8.60;100.00
30967;BME280;17649;51.836;8.330;2024-03-06T00:23:42;101201.13;;;8.86;100.00
30967;BME280;17649;51.836;8.330;2024-03-06T00:26:44;101203.94;;;9.02;100.00
30967;BME280;17649;51.836;8.330;2024-03-06T00:29:45;101201.06;;;8.66;100.00
30967;BME280;17649;51.836;8.330;2024-03-06T00:32:45;101206.41;;;8.83;100.00
30967;BME280;17649;51.836;8.330;2024-03-06T00:35:45;101213.84;;;8.91;100.00
30967;BME280;17649;51.836;8.330;2024-03-06T00:38:48;101224.16;;;8.91;100.00
30967;BME280;17649;51.836;8.330;2024-03-06T00:41:48;101222.81;;;9.04;100.00
30967;BME280;17649;51.836;8.330;2024-03-06T00:44:48;101225.63;;;8.98;100.00
30967;BME280;17649;51.836;8.330;2024-03-06T00:47:49;101231.19;;;8.87;100.00
30967;BME280;17649;51.836;8.330;2024-03-06T00:50:49;101227.59;;;8.70;100.00
30967;BME280;17649;51.836;8.330;2024-03-06T00:53:49;101230.41;;;8.85;100.00
30967;BME280;17649;51.836;8.330;2024-03-06T00:56:49;101221.06;;;8.83;100.00
30967;BME280;17649;51.836;8.330;2024-03-06T00:59:50;101228.59;;;8.65;100.00
30967;BME280;17649;51.836;8.330;2024-03-06T01:02:50;101238.81;;;8.69;100.00
30967;BME280;17649;51.836;8.330;2024-03-06T01:05:51;101237.31;;;8.61;100.00
30967;BME280;17649;51.836;8.330;2024-03-06T01:08:55;101231.25;;;8.86;100.00
30967;BME280;17649;51.836;8.330;2024-03-06T01:11:57;101238.28;;;9.04;100.00
30967;BME280;17649;51.836;8.330;2024-03-06T01:14:57;101239.97;;;9.05;100.00
30967;BME280;17649;51.836;8.330;2024-03-06T01:17:57;101237.28;;;9.08;100.00
30967;BME280;17649;51.836;8.330;2024-03-06T01:20:57;101231.41;;;9.26;100.00
30967;BME280;17649;51.836;8.330;2024-03-06T01:23:58;101234.69;;;9.30;100.00
30967;BME280;17649;51.836;8.330;2024-03-06T01:26:58;101239.31;;;9.00;100.00
30967;BME280;17649;51.836;8.330;2024-03-06T01:30:02;101247.06;;;8.78;100.00
30967;BME280;17649;51.836;8.330;2024-03-06T01:33:04;101249.81;;;8.95;100.00
30967;BME280;17649;51.836;8.330;2024-03-06T01:36:05;101236.03;;;8.96;100.00
30967;BME280;17649;51.836;8.330;2024-03-06T01:39:05;101246.03;;;9.04;100.00
30967;BME280;17649;51.836;8.330;2024-03-06T01:42:07;101247.13;;;9.20;100.00
30967;BME280;17649;51.836;8.330;2024-03-06T01:45:07;101251.31;;;9.01;100.00
30967;BME280;17649;51.836;8.330;2024-03-06T01:48:08;101256.09;;;8.88;100.00
30967;BME280;17649;51.836;8.330;2024-03-06T01:51:08;101256.28;;;9.06;100.00
30967;BME280;17649;51.836;8.330;2024-03-06T01:54:09;101262.66;;;9.19;100.00
30967;BME280;17649;51.836;8.330;2024-03-06T01:57:10;101262.59;;;9.20;100.00
30967;BME280;17649;51.836;8.330;2024-03-06T02:00:13;101261.53;;;9.04;100.00
30967;BME280;17649;51.836;8.330;2024-03-06T02:03:14;101275.78;;;8.91;100.00
30967;BME280;17649;51.836;8.330;2024-03-06T02:06:15;101276.38;;;8.76;100.00
30967;BME280;17649;51.836;8.330;2024-03-06T02:09:19;101278.03;;;9.00;100.00
30967;BME280;17649;51.836;8.330;2024-03-06T02:12:20;101279.91;;;9.18;100.00
30967;BME280;17649;51.836;8.330;2024-03-06T02:15:20;101277.09;;;9.24;100.00
30967;BME280;17649;51.836;8.330;2024-03-06T02:18:21;101274.09;;;9.13;100.00
30967;BME280;17649;51.836;8.330;2024-03-06T02:21:22;101274.22;;;9.10;100.00
30967;BME280;17649;51.836;8.330;2024-03-06T02:24:23;101270.56;;;8.92;100.00
30967;BME280;17649;51.836;8.330;2024-03-06T02:27:23;101271.84;;;8.82;100.00
30967;BME280;17649;51.836;8.330;2024-03-06T02:30:24;101271.84;;;8.82;100.00
30967;BME280;17649;51.836;8.330;2024-03-06T02:33:24;101267.31;;;9.11;100.00
30967;BME280;17649;51.836;8.330;2024-03-06T02:36:24;101282.53;;;9.17;100.00
30967;BME280;17649;51.836;8.330;2024-03-06T02:39:25;101278.13;;;9.42;100.00
30967;BME280;17649;51.836;8.330;2024-03-06T02:42:27;101282.03;;;9.52;100.00
30967;BME280;17649;51.836;8.330;2024-03-06T02:45:28;101284.97;;;9.43;100.00
30967;BME280;17649;51.836;8.330;2024-03-06T02:48:29;101287.13;;;9.54;100.00
30967;BME280;17649;51.836;8.330;2024-03-06T02:51:29;101286.03;;;9.60;100.00
30967;BME280;17649;51.836;8.330;2024-03-06T02:54:29;101283.63;;;9.55;100.00
30967;BME280;17649;51.836;8.330;2024-03-06T02:57:30;101288.72;;;9.35;100.00
30967;BME280;17649;51.836;8.330;2024-03-06T03:00:30;101290.00;;;9.24;100.00
30967;BME280;17649;51.836;8.330;2024-03-06T03:03:31;101295.25;;;9.23;100.00
30967;BME280;17649;51.836;8.330;2024-03-06T03:06:32;101296.09;;;9.23;100.00
30967;BME280;17649;51.836;8.330;2024-03-06T03:09:32;101297.44;;;9.10;100.00
30967;BME280;17649;51.836;8.330;2024-03-06T03:12:32;101288.81;;;9.11;100.00
30967;BME280;17649;51.836;8.330;2024-03-06T03:15:33;101294.66;;;8.93;100.00
30967;BME280;17649;51.836;8.330;2024-03-06T03:18:34;101284.16;;;8.98;100.00
30967;BME280;17649;51.836;8.330;2024-03-06T03:21:34;101296.84;;;9.25;100.00
30967;BME280;17649;51.836;8.330;2024-03-06T03:24:34;101298.28;;;9.33;100.00
30967;BME280;17649;51.836;8.330;2024-03-06T03:27:36;101301.59;;;9.36;100.00
30967;BME280;17649;51.836;8.330;2024-03-06T03:30:37;101297.56;;;9.29;100.00
30967;BME280;17649;51.836;8.330;2024-03-06T03:33:40;101294.13;;;9.07;100.00
30967;BME280;17649;51.836;8.330;2024-03-06T03:36:42;101299.66;;;9.19;100.00
30967;BME280;17649;51.836;8.330;2024-03-06T03:39:45;101306.59;;;9.41;100.00
30967;BME280;17649;51.836;8.330;2024-03-06T03:42:46;101304.78;;;9.43;100.00
30967;BME280;17649;51.836;8.330;2024-03-06T03:45:46;101311.56;;;9.45;100.00
30967;BME280;17649;51.836;8.330;2024-03-06T03:48:47;101315.47;;;9.55;100.00
30967;BME280;17649;51.836;8.330;2024-03-06T03:51:47;101320.09;;;9.25;100.00
30967;BME280;17649;51.836;8.330;2024-03-06T03:54:47;101317.34;;;9.30;100.00
30967;BME280;17649;51.836;8.330;2024-03-06T03:57:48;101314.69;;;9.32;100.00
30967;BME280;17649;51.836;8.330;2024-03-06T04:00:48;101318.81;;;9.36;100.00
30967;BME280;17649;51.836;8.330;2024-03-06T04:03:52;101313.31;;;9.45;100.00
30967;BME280;17649;51.836;8.330;2024-03-06T04:06:53;101314.50;;;9.36;100.00
30967;BME280;17649;51.836;8.330;2024-03-06T04:09:53;101328.53;;;9.52;100.00
30967;BME280;17649;51.836;8.330;2024-03-06T04:12:53;101320.28;;;9.43;100.00
30967;BME280;17649;51.836;8.330;2024-03-06T04:15:54;101323.03;;;9.60;100.00
30967;BME280;17649;51.836;8.330;2024-03-06T04:18:56;101320.66;;;9.55;100.00
30967;BME280;17649;51.836;8.330;2024-03-06T04:21:56;101327.22;;;9.63;100.00
30967;BME280;17649;51.836;8.330;2024-03-06T04:24:56;101320.88;;;9.71;100.00
30967;BME280;17649;51.836;8.330;2024-03-06T04:27:58;101325.13;;;9.72;100.00
30967;BME280;17649;51.836;8.330;2024-03-06T04:30:59;101326.56;;;9.79;100.00
30967;BME280;17649;51.836;8.330;2024-03-06T04:33:59;101332.41;;;9.84;100.00
30967;BME280;17649;51.836;8.330;2024-03-06T04:37:01;101336.53;;;9.89;100.00
30967;BME280;17649;51.836;8.330;2024-03-06T04:40:03;101332.91;;;9.93;100.00
30967;BME280;17649;51.836;8.330;2024-03-06T04:43:03;101346.81;;;9.90;100.00
30967;BME280;17649;51.836;8.330;2024-03-06T04:46:04;101343.19;;;9.94;100.00
30967;BME280;17649;51.836;8.330;2024-03-06T04:49:05;101347.78;;;9.88;100.00
30967;BME280;17649;51.836;8.330;2024-03-06T04:52:05;101365.03;;;9.87;100.00
30967;BME280;17649;51.836;8.330;2024-03-06T04:55:07;101360.50;;;9.92;100.00
30967;BME280;17649;51.836;8.330;2024-03-06T04:58:07;101362.91;;;9.97;100.00
30967;BME280;17649;51.836;8.330;2024-03-06T05:01:08;101365.44;;;9.98;100.00
30967;BME280;17649;51.836;8.330;2024-03-06T05:04:09;101377.41;;;10.01;100.00
30967;BME280;17649;51.836;8.330;2024-03-06T05:07:09;101375.72;;;10.00;100.00
30967;BME280;17649;51.836;8.330;2024-03-06T05:10:09;101380.00;;;10.01;100.00
30967;BME280;17649;51.836;8.330;2024-03-06T05:13:10;101385.03;;;10.04;100.00
30967;BME280;17649;51.836;8.330;2024-03-06T05:16:10;101396.28;;;10.03;100.00
30967;BME280;17649;51.836;8.330;2024-03-06T05:19:10;101395.50;;;10.01;100.00
30967;BME280;17649;51.836;8.330;2024-03-06T05:22:13;101391.16;;;10.01;100.00
30967;BME280;17649;51.836;8.330;2024-03-06T05:25:13;101399.78;;;10.02;100.00
30967;BME280;17649;51.836;8.330;2024-03-06T05:28:14;101401.59;;;10.00;100.00
30967;BME280;17649;51.836;8.330;2024-03-06T05:31:18;101402.34;;;10.02;100.00
30967;BME280;17649;51.836;8.330;2024-03-06T05:34:19;101404.03;;;10.03;100.00
30967;BME280;17649;51.836;8.330;2024-03-06T05:37:19;101399.06;;;9.98;100.00
30967;BME280;17649;51.836;8.330;2024-03-06T05:40:19;101413.06;;;9.93;100.00
30967;BME280;17649;51.836;8.330;2024-03-06T05:43:20;101420.16;;;9.88;100.00
30967;BME280;17649;51.836;8.330;2024-03-06T05:46:20;101422.09;;;9.82;100.00
30967;BME280;17649;51.836;8.330;2024-03-06T05:49:20;101423.94;;;9.79;100.00
30967;BME280;17649;51.836;8.330;2024-03-06T05:52:21;101422.56;;;9.70;100.00
30967;BME280;17649;51.836;8.330;2024-03-06T05:55:21;101427.03;;;9.65;100.00
30967;BME280;17649;51.836;8.330;2024-03-06T05:58:21;101436.47;;;9.66;100.00
30967;BME280;17649;51.836;8.330;2024-03-06T06:01:22;101441.50;;;9.47;100.00
30967;BME280;17649;51.836;8.330;2024-03-06T06:04:22;101438.75;;;9.52;100.00
30967;BME280;17649;51.836;8.330;2024-03-06T06:07:22;101444.22;;;9.66;100.00
30967;BME280;17649;51.836;8.330;2024-03-06T06:10:23;101453.84;;;9.63;100.00
30967;BME280;17649;51.836;8.330;2024-03-06T06:13:23;101459.06;;;9.61;100.00
30967;BME280;17649;51.836;8.330;2024-03-06T06:16:23;101458.00;;;9.67;100.00
30967;BME280;17649;51.836;8.330;2024-03-06T06:19:24;101463.59;;;9.78;100.00
30967;BME280;17649;51.836;8.330;2024-03-06T06:22:27;101465.94;;;9.62;100.00
30967;BME280;17649;51.836;8.330;2024-03-06T06:25:27;101473.16;;;9.54;100.00
30967;BME280;17649;51.836;8.330;2024-03-06T06:28:29;101473.47;;;9.45;100.00
30967;BME280;17649;51.836;8.330;2024-03-06T06:31:29;101476.28;;;9.39;100.00
30967;BME280;17649;51.836;8.330;2024-03-06T06:34:29;101474.63;;;9.36;100.00
30967;BME280;17649;51.836;8.330;2024-03-06T06:37:31;101472.22;;;9.32;100.00
30967;BME280;17649;51.836;8.330;2024-03-06T06:40:32;101483.91;;;9.42;100.00
30967;BME280;17649;51.836;8.330;2024-03-06T06:43:32;101488.84;;;9.48;100.00
30967;BME280;17649;51.836;8.330;2024-03-06T06:46:32;101493.25;;;9.22;100.00
30967;BME280;17649;51.836;8.330;2024-03-06T06:49:33;101501.53;;;9.31;100.00
30967;BME280;17649;51.836;8.330;2024-03-06T06:52:34;101506.69;;;9.31;100.00
30967;BME280;17649;51.836;8.330;2024-03-06T06:55:35;101509.66;;;9.20;100.00
30967;BME280;17649;51.836;8.330;2024-03-06T06:58:36;101505.78;;;9.08;100.00
30967;BME280;17649;51.836;8.330;2024-03-06T07:01:36;101519.19;;;9.18;100.00
30967;BME280;17649;51.836;8.330;2024-03-06T07:04:36;101521.78;;;9.43;100.00
30967;BME280;17649;51.836;8.330;2024-03-06T07:07:38;101521.00;;;9.41;100.00
30967;BME280;17649;51.836;8.330;2024-03-06T07:10:38;101530.13;;;9.26;100.00
30967;BME280;17649;51.836;8.330;2024-03-06T07:13:39;101535.22;;;9.52;100.00
30967;BME280;17649;51.836;8.330;2024-03-06T07:16:43;101541.31;;;9.50;100.00
30967;BME280;17649;51.836;8.330;2024-03-06T07:19:43;101537.03;;;9.49;100.00
30967;BME280;17649;51.836;8.330;2024-03-06T07:22:44;101537.38;;;9.40;100.00
30967;BME280;17649;51.836;8.330;2024-03-06T07:25:45;101542.31;;;9.46;100.00
30967;BME280;17649;51.836;8.330;2024-03-06T07:28:46;101548.63;;;9.39;100.00
30967;BME280;17649;51.836;8.330;2024-03-06T07:31:46;101549.03;;;9.26;100.00
30967;BME280;17649;51.836;8.330;2024-03-06T07:34:47;101554.06;;;9.54;100.00
30967;BME280;17649;51.836;8.330;2024-03-06T07:37:47;101562.09;;;9.47;100.00
30967;BME280;17649;51.836;8.330;2024-03-06T07:40:48;101565.09;;;9.35;100.00
30967;BME280;17649;51.836;8.330;2024-03-06T07:43:48;101568.38;;;9.40;100.00
30967;BME280;17649;51.836;8.330;2024-03-06T07:46:48;101570.97;;;9.40;100.00
30967;BME280;17649;51.836;8.330;2024-03-06T07:49:49;101577.38;;;9.53;100.00
30967;BME280;17649;51.836;8.330;2024-03-06T07:52:50;101574.47;;;9.62;100.00
30967;BME280;17649;51.836;8.330;2024-03-06T07:55:51;101582.69;;;9.73;100.00
30967;BME280;17649;51.836;8.330;2024-03-06T07:58:51;101581.94;;;9.70;100.00
30967;BME280;17649;51.836;8.330;2024-03-06T08:01:51;101583.41;;;9.52;100.00
30967;BME280;17649;51.836;8.330;2024-03-06T08:04:52;101590.91;;;9.60;100.00
30967;BME280;17649;51.836;8.330;2024-03-06T08:07:52;101591.56;;;9.90;100.00
30967;BME280;17649;51.836;8.330;2024-03-06T08:10:53;101596.59;;;9.93;100.00
30967;BME280;17649;51.836;8.330;2024-03-06T08:13:57;101590.75;;;10.11;100.00
30967;BME280;17649;51.836;8.330;2024-03-06T08:16:58;101601.44;;;10.02;100.00
30967;BME280;17649;51.836;8.330;2024-03-06T08:19:58;101600.31;;;10.09;100.00
30967;BME280;17649;51.836;8.330;2024-03-06T08:22:59;101605.69;;;10.28;100.00
30967;BME280;17649;51.836;8.330;2024-03-06T08:26:00;101608.63;;;10.17;100.00
30967;BME280;17649;51.836;8.330;2024-03-06T08:29:00;101611.59;;;10.06;100.00
30967;BME280;17649;51.836;8.330;2024-03-06T08:32:00;101620.44;;;10.01;100.00
30967;BME280;17649;51.836;8.330;2024-03-06T08:35:05;101623.41;;;9.90;100.00
30967;BME280;17649;51.836;8.330;2024-03-06T08:38:06;101626.72;;;9.94;100.00
30967;BME280;17649;51.836;8.330;2024-03-06T08:41:06;101627.69;;;10.14;100.00
30967;BME280;17649;51.836;8.330;2024-03-06T08:44:06;101633.38;;;10.24;100.00
30967;BME280;17649;51.836;8.330;2024-03-06T08:47:07;101634.78;;;10.33;100.00
30967;BME280;17649;51.836;8.330;2024-03-06T08:50:08;101632.22;;;10.55;100.00
30967;BME280;17649;51.836;8.330;2024-03-06T08:53:09;101626.09;;;10.79;100.00
30967;BME280;17649;51.836;8.330;2024-03-06T08:56:10;101630.34;;;10.80;100.00
30967;BME280;17649;51.836;8.330;2024-03-06T08:59:10;101635.88;;;10.93;100.00
30967;BME280;17649;51.836;8.330;2024-03-06T09:02:15;101643.56;;;11.16;100.00
30967;BME280;17649;51.836;8.330;2024-03-06T09:05:16;101647.91;;;11.56;100.00
30967;BME280;17649;51.836;8.330;2024-03-06T09:08:16;101635.84;;;11.55;100.00
30967;BME280;17649;51.836;8.330;2024-03-06T09:11:17;101639.75;;;11.45;100.00
30967;BME280;17649;51.836;8.330;2024-03-06T09:14:17;101645.84;;;11.85;100.00
30967;BME280;17649;51.836;8.330;2024-03-06T09:17:18;101645.66;;;12.08;100.00
30967;BME280;17649;51.836;8.330;2024-03-06T09:20:18;101646.91;;;12.18;100.00
30967;BME280;17649;51.836;8.330;2024-03-06T09:23:18;101649.94;;;12.28;100.00
30967;BME280;17649;51.836;8.330;2024-03-06T09:26:18;101651.59;;;12.48;100.00
30967;BME280;17649;51.836;8.330;2024-03-06T09:29:20;101660.50;;;12.61;100.00
30967;BME280;17649;51.836;8.330;2024-03-06T09:32:21;101650.63;;;12.69;100.00
30967;BME280;17649;51.836;8.330;2024-03-06T09:35:22;101646.53;;;13.00;100.00
30967;BME280;17649;51.836;8.330;2024-03-06T09:38:22;101657.44;;;13.25;100.00
30967;BME280;17649;51.836;8.330;2024-03-06T09:41:23;101660.03;;;13.42;100.00
30967;BME280;17649;51.836;8.330;2024-03-06T09:44:23;101659.72;;;13.31;100.00
30967;BME280;17649;51.836;8.330;2024-03-06T09:47:24;101661.78;;;13.59;100.00
30967;BME280;17649;51.836;8.330;2024-03-06T09:50:29;101666.75;;;13.64;100.00
30967;BME280;17649;51.836;8.330;2024-03-06T10:05:18;101672.44;;;13.55;100.00
30967;BME280;17649;51.836;8.330;2024-03-06T10:08:48;101681.75;;;13.92;100.00
30967;BME280;17649;51.836;8.330;2024-03-06T10:12:03;101675.78;;;14.23;100.00
30967;BME280;17649;51.836;8.330;2024-03-06T10:15:16;101674.91;;;14.55;100.00
30967;BME280;17649;51.836;8.330;2024-03-06T10:18:37;101656.00;;;15.13;100.00
30967;BME280;17649;51.836;8.330;2024-03-06T10:25:29;101654.41;;;15.55;100.00
30967;BME280;17649;51.836;8.330;2024-03-06T10:28:32;101660.81;;;15.94;100.00
30967;BME280;17649;51.836;8.330;2024-03-06T10:31:36;101666.75;;;16.24;100.00
30967;BME280;17649;51.836;8.330;2024-03-06T10:34:55;101670.03;;;15.85;100.00
30967;BME280;17649;51.836;8.330;2024-03-06T10:45:14;101684.56;;;15.45;100.00
30967;BME280;17649;51.836;8.330;2024-03-06T10:48:21;101680.88;;;15.49;100.00
30967;BME280;17649;51.836;8.330;2024-03-06T10:51:22;101691.09;;;14.92;100.00
30967;BME280;17649;51.836;8.330;2024-03-06T10:54:27;101694.56;;;14.77;100.00
30967;BME280;17649;51.836;8.330;2024-03-06T10:57:29;101688.72;;;14.40;100.00
30967;BME280;17649;51.836;8.330;2024-03-06T11:00:30;101691.84;;;14.31;100.00
30967;BME280;17649;51.836;8.330;2024-03-06T11:03:31;101696.13;;;14.32;100.00
30967;BME280;17649;51.836;8.330;2024-03-06T11:06:38;101697.88;;;14.16;100.00
30967;BME280;17649;51.836;8.330;2024-03-06T11:09:46;101705.25;;;14.23;100.00
30967;BME280;17649;51.836;8.330;2024-03-06T11:13:02;101703.88;;;13.83;100.00
30967;BME280;17649;51.836;8.330;2024-03-06T11:20:23;101700.78;;;14.10;100.00
30967;BME280;17649;51.836;8.330;2024-03-06T11:24:19;101705.22;;;14.08;100.00
30967;BME280;17649;51.836;8.330;2024-03-06T11:27:21;101708.31;;;14.31;100.00
30967;BME280;17649;51.836;8.330;2024-03-06T11:30:23;101713.63;;;14.13;100.00
30967;BME280;17649;51.836;8.330;2024-03-06T11:33:28;101709.66;;;14.06;100.00
30967;BME280;17649;51.836;8.330;2024-03-06T11:36:34;101713.66;;;13.95;100.00
30967;BME280;17649;51.836;8.330;2024-03-06T11:39:36;101714.88;;;14.06;100.00
30967;BME280;17649;51.836;8.330;2024-03-06T11:42:36;101720.22;;;13.69;100.00
30967;BME280;17649;51.836;8.330;2024-03-06T11:45:44;101717.75;;;13.84;100.00
30967;BME280;17649;51.836;8.330;2024-03-06T11:48:52;101721.69;;;13.40;100.00
30967;BME280;17649;51.836;8.330;2024-03-06T11:51:57;101728.41;;;13.62;100.00
30967;BME280;17649;51.836;8.330;2024-03-06T11:54:58;101729.22;;;13.80;100.00
30967;BME280;17649;51.836;8.330;2024-03-06T11:57:58;101723.13;;;13.63;100.00
30967;BME280;17649;51.836;8.330;2024-03-06T12:00:59;101719.97;;;13.74;100.00
30967;BME280;17649;51.836;8.330;2024-03-06T12:04:00;101728.06;;;13.68;100.00
30967;BME280;17649;51.836;8.330;2024-03-06T12:07:01;101734.34;;;13.81;100.00
30967;BME280;17649;51.836;8.330;2024-03-06T12:10:09;101729.72;;;14.03;100.00
30967;BME280;17649;51.836;8.330;2024-03-06T12:13:09;101729.84;;;14.18;100.00
30967;BME280;17649;51.836;8.330;2024-03-06T12:16:10;101737.84;;;14.15;100.00
30967;BME280;17649;51.836;8.330;2024-03-06T12:19:11;101732.13;;;14.24;100.00
30967;BME280;17649;51.836;8.330;2024-03-06T12:22:12;101730.28;;;14.26;100.00
30967;BME280;17649;51.836;8.330;2024-03-06T12:25:24;101729.38;;;14.43;100.00
30967;BME280;17649;51.836;8.330;2024-03-06T12:28:24;101736.78;;;14.35;100.00
30967;BME280;17649;51.836;8.330;2024-03-06T12:31:24;101741.72;;;14.39;100.00
30967;BME280;17649;51.836;8.330;2024-03-06T12:34:25;101735.75;;;14.37;100.00
30967;BME280;17649;51.836;8.330;2024-03-06T12:37:29;101744.06;;;14.45;100.00
30967;BME280;17649;51.836;8.330;2024-03-06T12:40:31;101751.19;;;14.57;100.00
30967;BME280;17649;51.836;8.330;2024-03-06T12:43:31;101741.72;;;14.39;100.00
30967;BME280;17649;51.836;8.330;2024-03-06T12:46:33;101738.41;;;14.20;100.00
30967;BME280;17649;51.836;8.330;2024-03-06T12:49:34;101740.28;;;14.18;100.00
30967;BME280;17649;51.836;8.330;2024-03-06T12:52:35;101735.47;;;14.26;100.00
30967;BME280;17649;51.836;8.330;2024-03-06T12:55:35;101735.91;;;14.18;100.00
30967;BME280;17649;51.836;8.330;2024-03-06T12:58:35;101734.41;;;14.30;100.00
30967;BME280;17649;51.836;8.330;2024-03-06T13:01:36;101735.75;;;14.37;100.00
30967;BME280;17649;51.836;8.330;2024-03-06T13:04:36;101734.34;;;14.31;100.00
30967;BME280;17649;51.836;8.330;2024-03-06T13:07:37;101741.19;;;14.17;100.00
30967;BME280;17649;51.836;8.330;2024-03-06T13:10:37;101740.38;;;14.32;100.00
30967;BME280;17649;51.836;8.330;2024-03-06T13:13:38;101731.88;;;14.46;100.00
30967;BME280;17649;51.836;8.330;2024-03-06T13:16:39;101736.41;;;14.58;100.00
30967;BME280;17649;51.836;8.330;2024-03-06T13:19:39;101731.88;;;14.61;100.00
30967;BME280;17649;51.836;8.330;2024-03-06T13:22:40;101733.50;;;14.31;100.00
30967;BME280;17649;51.836;8.330;2024-03-06T13:25:40;101739.59;;;14.47;100.00
30967;BME280;17649;51.836;8.330;2024-03-06T13:28:40;101733.03;;;14.56;100.00
30967;BME280;17649;51.836;8.330;2024-03-06T13:31:41;101735.06;;;14.51;100.00
30967;BME280;17649;51.836;8.330;2024-03-06T13:34:41;101736.53;;;14.39;100.00
30967;BME280;17649;51.836;8.330;2024-03-06T13:37:42;101739.41;;;13.67;100.00
30967;BME280;17649;51.836;8.330;2024-03-06T13:40:43;101740.84;;;13.90;100.00
30967;BME280;17649;51.836;8.330;2024-03-06T13:43:43;101740.84;;;14.23;100.00
30967;BME280;17649;51.836;8.330;2024-03-06T13:46:44;101744.50;;;14.36;100.00
30967;BME280;17649;51.836;8.330;2024-03-06T13:49:44;101743.31;;;14.75;100.00
30967;BME280;17649;51.836;8.330;2024-03-06T13:52:44;101744.75;;;14.31;100.00
30967;BME280;17649;51.836;8.330;2024-03-06T13:55:45;101753.28;;;14.51;100.00
30967;BME280;17649;51.836;8.330;2024-03-06T13:58:45;101744.38;;;15.02;100.00
30967;BME280;17649;51.836;8.330;2024-03-06T14:01:45;101748.47;;;15.38;100.00
30967;BME280;17649;51.836;8.330;2024-03-06T14:04:46;101737.41;;;15.64;100.00
30967;BME280;17649;51.836;8.330;2024-03-06T14:07:46;101740.19;;;15.45;100.00
30967;BME280;17649;51.836;8.330;2024-03-06T14:10:46;101737.69;;;15.88;100.00
30967;BME280;17649;51.836;8.330;2024-03-06T14:13:47;101737.94;;;15.69;100.00
30967;BME280;17649;51.836;8.330;2024-03-06T14:16:47;101741.00;;;15.62;100.00
30967;BME280;17649;51.836;8.330;2024-03-06T14:19:48;101738.16;;;15.80;100.00
30967;BME280;17649;51.836;8.330;2024-03-06T14:22:48;101742.56;;;15.94;100.00
30967;BME280;17649;51.836;8.330;2024-03-06T14:25:48;101746.19;;;16.06;100.00
30967;BME280;17649;51.836;8.330;2024-03-06T14:28:48;101745.13;;;15.66;100.00
30967;BME280;17649;51.836;8.330;2024-03-06T14:31:49;101745.03;;;15.67;100.00
30967;BME280;17649;51.836;8.330;2024-03-06T14:34:49;101745.59;;;15.72;100.00
30967;BME280;17649;51.836;8.330;2024-03-06T14:37:50;101741.97;;;15.75;100.00
30967;BME280;17649;51.836;8.330;2024-03-06T14:40:53;101752.16;;;15.79;100.00
30967;BME280;17649;51.836;8.330;2024-03-06T14:43:53;101764.56;;;16.04;100.00
30967;BME280;17649;51.836;8.330;2024-03-06T14:46:54;101752.19;;;16.08;100.00
30967;BME280;17649;51.836;8.330;2024-03-06T14:49:54;101751.50;;;16.19;100.00
30967;BME280;17649;51.836;8.330;2024-03-06T14:52:54;101757.75;;;15.88;100.00
30967;BME280;17649;51.836;8.330;2024-03-06T14:55:58;101753.00;;;15.34;100.00
30967;BME280;17649;51.836;8.330;2024-03-06T14:58:59;101748.13;;;15.88;100.00
30967;BME280;17649;51.836;8.330;2024-03-06T15:01:59;101757.94;;;15.99;100.00
30967;BME280;17649;51.836;8.330;2024-03-06T15:04:59;101751.97;;;15.83;100.00
30967;BME280;17649;51.836;8.330;2024-03-06T15:07:59;101756.41;;;15.66;100.00
30967;BME280;17649;51.836;8.330;2024-03-06T15:11:00;101766.41;;;15.12;100.00
30967;BME280;17649;51.836;8.330;2024-03-06T15:14:00;101765.97;;;14.73;100.00
30967;BME280;17649;51.836;8.330;2024-03-06T15:17:01;101769.59;;;14.86;100.00
30967;BME280;17649;51.836;8.330;2024-03-06T15:20:01;101758.56;;;14.16;100.00
30967;BME280;17649;51.836;8.330;2024-03-06T15:23:02;101773.13;;;14.03;100.00
30967;BME280;17649;51.836;8.330;2024-03-06T15:26:02;101767.47;;;14.28;100.00
30967;BME280;17649;51.836;8.330;2024-03-06T15:29:03;101765.56;;;14.49;100.00
30967;BME280;17649;51.836;8.330;2024-03-06T15:32:07;101761.63;;;14.40;100.00
30967;BME280;17649;51.836;8.330;2024-03-06T15:35:08;101765.91;;;14.41;100.00
30967;BME280;17649;51.836;8.330;2024-03-06T15:38:09;101760.88;;;14.38;100.00
30967;BME280;17649;51.836;8.330;2024-03-06T15:41:09;101764.97;;;14.44;100.00
30967;BME280;17649;51.836;8.330;2024-03-06T15:44:10;101765.19;;;14.88;100.00
30967;BME280;17649;51.836;8.330;2024-03-06T15:47:10;101768.19;;;15.12;100.00
30967;BME280;17649;51.836;8.330;2024-03-06T15:50:11;101757.03;;;15.40;100.00
30967;BME280;17649;51.836;8.330;2024-03-06T15:53:12;101773.00;;;15.04;100.00
30967;BME280;17649;51.836;8.330;2024-03-06T15:56:12;101770.13;;;14.93;100.00
30967;BME280;17649;51.836;8.330;2024-03-06T15:59:14;101767.41;;;14.47;100.00
30967;BME280;17649;51.836;8.330;2024-03-06T16:02:14;101775.78;;;14.19;100.00
30967;BME280;17649;51.836;8.330;2024-03-06T16:05:15;101765.88;;;13.75;100.00
30967;BME280;17649;51.836;8.330;2024-03-06T16:08:15;101774.72;;;13.36;100.00
30967;BME280;17649;51.836;8.330;2024-03-06T16:11:15;101781.97;;;13.11;100.00